Time;durP1;ratioP1;P1;durP2;ratioP2;P2;SDS_P1;SDS_P2;PMS_P1;PMS_P2;Temp;Humidity;BMP_temperature;BMP_pressure;BME280_temperature;BME280_humidity;BME280_pressure;Samples;Min_cycle;Max_cycle;Signal;HPM_P1;HPM_P2
2022/05/28 00:00:57;;;;;;;5.47;1.80;;;14.40;98.40;;;;;;5079087;28;20181;-66
2022/05/28 00:03:24;;;;;;;5.93;1.80;;;14.30;97.80;;;;;;5071440;28;20181;-66
2022/05/28 00:05:50;;;;;;;8.40;1.75;;;14.30;97.80;;;;;;5071255;28;20205;-66
2022/05/28 00:08:16;;;;;;;5.57;2.20;;;14.30;97.70;;;;;;5071298;28;20243;-66
2022/05/28 00:10:43;;;;;;;2.35;1.58;;;14.30;97.80;;;;;;5071017;28;20627;-66
2022/05/28 00:13:08;;;;;;;6.32;1.70;;;14.20;97.00;;;;;;5074652;28;20184;-66
2022/05/28 00:15:34;;;;;;;8.80;1.75;;;14.10;96.50;;;;;;5075137;28;20185;-65
2022/05/28 00:18:00;;;;;;;3.72;1.60;;;14.10;96.90;;;;;;5075088;28;20255;-66
2022/05/28 00:20:27;;;;;;;3.85;1.70;;;14.10;97.00;;;;;;5067953;28;20602;-66
2022/05/28 00:22:53;;;;;;;4.75;1.67;;;13.90;96.90;;;;;;5075108;28;20226;-66
2022/05/28 00:25:19;;;;;;;3.70;1.58;;;13.90;97.00;;;;;;5075077;28;20209;-65
2022/05/28 00:27:44;;;;;;;3.35;1.77;;;13.80;97.10;;;;;;5074929;28;20176;-65
2022/05/28 00:30:16;;;;;;;4.47;2.00;;;13.80;97.40;;;;;;5075049;28;20276;-65
2022/05/28 00:32:42;;;;;;;8.05;1.90;;;13.70;97.20;;;;;;5075107;28;20181;-66
2022/05/28 00:35:11;;;;;;;3.53;2.10;;;13.60;97.30;;;;;;5074763;28;20627;-66
2022/05/28 00:37:37;;;;;;;5.53;2.00;;;13.60;97.30;;;;;;5074932;28;20192;-65
2022/05/28 00:40:06;;;;;;;9.50;2.00;;;13.50;97.40;;;;;;5074779;28;20176;-65
2022/05/28 00:42:32;;;;;;;5.50;1.40;;;13.50;97.40;;;;;;5074616;28;20283;-66
2022/05/28 00:44:57;;;;;;;6.00;1.83;;;13.40;97.00;;;;;;5074719;28;20259;-65
2022/05/28 00:47:24;;;;;;;6.40;1.92;;;13.40;96.90;;;;;;5074576;28;20189;-66
2022/05/28 00:49:51;;;;;;;4.50;1.50;;;13.30;96.80;;;;;;5075313;28;20217;-65
2022/05/28 00:52:18;;;;;;;5.03;1.75;;;13.30;96.80;;;;;;5074544;28;20187;-66
2022/05/28 00:54:46;;;;;;;4.78;1.90;;;13.20;96.80;;;;;;5074896;28;20176;-66
2022/05/28 00:57:14;;;;;;;5.40;1.88;;;13.20;97.10;;;;;;5074696;28;20173;-65
2022/05/28 00:59:40;;;;;;;7.43;1.52;;;13.20;97.00;;;;;;5074680;28;20267;-65
2022/05/28 01:02:29;;;;;;;10.57;2.03;;;13.10;96.90;;;;;;5074432;28;20707;-66
2022/05/28 01:05:05;;;;;;;2.92;1.30;;;13.00;97.20;;;;;;5054674;28;20256;-66
2022/05/28 01:08:01;;;;;;;4.88;1.73;;;13.00;97.20;;;;;;5072422;28;20212;-65
2022/05/28 01:10:45;;;;;;;4.97;1.60;;;13.00;97.30;;;;;;5074248;28;20180;-65
2022/05/28 01:13:57;;;;;;;5.47;1.60;;;12.90;97.00;;;;;;5074583;28;20279;-65
2022/05/28 01:16:32;;;;;;;4.90;1.30;;;12.90;97.40;;;;;;5028719;28;20308;-66
2022/05/28 01:19:05;;;;;;;6.22;1.60;;;12.90;97.60;;;;;;5071325;28;20686;-65
2022/05/28 01:21:46;;;;;;;7.40;2.00;;;12.80;97.50;;;;;;5067713;28;20181;-65
2022/05/28 01:24:25;;;;;;;8.57;1.67;;;12.80;97.90;;;;;;5074339;28;20180;-66
2022/05/28 01:26:56;;;;;;;5.45;1.88;;;12.80;97.80;;;;;;5073927;28;20215;-66
2022/05/28 01:29:24;;;;;;;5.63;1.88;;;12.80;97.80;;;;;;5074015;28;20228;-66
2022/05/28 01:31:51;;;;;;;3.20;1.40;;;12.70;98.00;;;;;;5074213;28;20255;-65
2022/05/28 01:34:19;;;;;;;6.15;2.00;;;12.70;98.50;;;;;;5073746;28;20177;-66
2022/05/28 01:36:45;;;;;;;7.25;1.70;;;12.70;98.10;;;;;;5073966;28;20173;-66
2022/05/28 01:39:12;;;;;;;6.57;1.77;;;12.60;98.10;;;;;;5073571;28;20263;-65
2022/05/28 01:41:38;;;;;;;5.47;1.60;;;12.60;98.10;;;;;;5073260;28;20234;-65
2022/05/28 01:44:06;;;;;;;6.50;2.00;;;12.50;98.30;;;;;;5073974;28;20185;-66
2022/05/28 01:46:34;;;;;;;6.57;1.33;;;12.50;98.40;;;;;;5073752;28;20545;-65
2022/05/28 01:49:00;;;;;;;5.68;1.70;;;12.50;98.40;;;;;;5072230;28;20176;-66
2022/05/28 01:51:33;;;;;;;5.30;1.52;;;12.50;97.90;;;;;;5073613;28;20208;-66
2022/05/28 01:54:07;;;;;;;3.85;1.58;;;12.50;98.20;;;;;;5073703;28;20177;-66
2022/05/28 01:56:33;;;;;;;5.35;1.45;;;12.50;98.20;;;;;;5073428;28;20250;-66
2022/05/28 01:58:58;;;;;;;6.20;1.98;;;12.50;98.20;;;;;;5073566;28;20538;-66
2022/05/28 02:01:24;;;;;;;9.57;1.83;;;12.40;98.10;;;;;;5073063;28;20235;-66
2022/05/28 02:03:52;;;;;;;6.82;1.80;;;12.40;98.20;;;;;;5073567;28;20653;-66
2022/05/28 02:06:18;;;;;;;4.72;1.73;;;12.40;98.40;;;;;;5073239;28;20212;-65
2022/05/28 02:08:46;;;;;;;4.82;1.55;;;12.40;97.80;;;;;;5072266;28;20193;-66
2022/05/28 02:11:15;;;;;;;4.60;1.90;;;12.30;97.80;;;;;;5073003;28;20241;-66
2022/05/28 02:13:55;;;;;;;4.78;1.30;;;12.30;98.10;;;;;;5073159;28;20222;-66
2022/05/28 02:16:49;;;;;;;5.53;1.45;;;12.30;98.10;;;;;;5072432;28;20187;-65
2022/05/28 02:19:43;;;;;;;3.83;1.63;;;12.30;98.20;;;;;;5071870;28;20221;-66
2022/05/28 02:22:34;;;;;;;5.53;1.70;;;12.20;98.50;;;;;;5054584;28;20255;-66
2022/05/28 02:25:06;;;;;;;5.28;2.10;;;12.20;98.30;;;;;;5072451;28;20676;-66
2022/05/28 02:27:33;;;;;;;9.20;2.00;;;12.10;98.30;;;;;;5072751;28;20323;-66
2022/05/28 02:30:02;;;;;;;5.13;1.88;;;12.10;98.50;;;;;;5070889;28;20250;-66
2022/05/28 02:32:27;;;;;;;4.82;1.55;;;12.10;98.50;;;;;;5073030;28;20267;-66
2022/05/28 02:34:53;;;;;;;9.05;1.95;;;12.00;98.60;;;;;;5072239;28;20200;-66
2022/05/28 02:37:21;;;;;;;7.97;2.33;;;12.00;98.70;;;;;;5072845;28;20191;-66
2022/05/28 02:39:48;;;;;;;5.25;1.95;;;12.00;98.80;;;;;;5070932;28;20208;-66
2022/05/28 02:42:14;;;;;;;6.40;1.50;;;12.00;99.20;;;;;;5072079;28;20597;-66
2022/05/28 02:44:39;;;;;;;5.97;2.08;;;11.90;98.70;;;;;;5072711;28;20189;-66
2022/05/28 02:47:05;;;;;;;3.90;1.40;;;12.00;98.90;;;;;;5072668;28;20720;-66
2022/05/28 02:49:31;;;;;;;5.53;1.90;;;11.90;98.90;;;;;;5072235;28;20235;-66
2022/05/28 02:52:01;;;;;;;4.85;1.70;;;11.90;99.00;;;;;;5072521;28;20177;-66
2022/05/28 02:54:27;;;;;;;8.50;1.38;;;11.90;99.00;;;;;;5072160;28;20184;-66
2022/05/28 02:56:52;;;;;;;12.00;2.00;;;11.80;98.70;;;;;;5072778;28;20168;-66
2022/05/28 02:59:18;;;;;;;5.65;1.70;;;11.80;98.80;;;;;;5070745;28;20172;-66
2022/05/28 03:01:43;;;;;;;4.78;1.40;;;11.70;98.90;;;;;;5072527;28;20183;-66
2022/05/28 03:04:09;;;;;;;5.20;1.73;;;11.70;99.10;;;;;;5072112;28;20169;-66
2022/05/28 03:06:38;;;;;;;5.05;1.80;;;11.70;99.50;;;;;;5072227;28;20257;-66
2022/05/28 03:09:08;;;;;;;2.97;1.30;;;11.60;99.60;;;;;;5072038;28;20204;-64
2022/05/28 03:11:35;;;;;;;7.55;1.73;;;11.60;99.40;;;;;;5072128;28;20192;-64
2022/05/28 03:14:01;;;;;;;3.47;1.77;;;11.60;99.50;;;;;;5071988;28;20609;-64
2022/05/28 03:16:27;;;;;;;5.82;1.60;;;11.50;99.90;;;;;;5072313;28;20165;-64
2022/05/28 03:18:53;;;;;;;8.95;1.85;;;11.40;99.90;;;;;;5070304;28;20228;-65
2022/05/28 03:21:19;;;;;;;8.23;1.95;;;11.30;99.90;;;;;;5064053;28;20188;-64
2022/05/28 03:23:47;;;;;;;4.38;1.42;;;11.30;99.90;;;;;;5072114;28;20185;-64
2022/05/28 03:26:19;;;;;;;6.20;1.70;;;11.20;99.90;;;;;;5071596;28;20559;-64
2022/05/28 03:28:46;;;;;;;4.10;1.60;;;11.20;99.90;;;;;;5071857;28;20177;-65
2022/05/28 03:31:12;;;;;;;3.63;1.95;;;11.20;99.90;;;;;;5072027;28;20279;-65
2022/05/28 03:33:38;;;;;;;4.13;1.75;;;11.10;99.90;;;;;;5071497;28;20208;-64
2022/05/28 03:36:05;;;;;;;7.03;1.77;;;11.10;99.90;;;;;;5071794;28;20189;-64
2022/05/28 03:38:31;;;;;;;5.53;1.88;;;11.00;99.90;;;;;;5071472;28;20506;-64
2022/05/28 03:40:58;;;;;;;4.53;1.52;;;11.10;99.90;;;;;;5071817;28;20230;-64
2022/05/28 03:43:24;;;;;;;6.13;2.25;;;11.00;99.90;;;;;;5071502;28;20192;-64
2022/05/28 03:45:50;;;;;;;3.30;1.73;;;11.00;99.90;;;;;;5071075;28;20209;-65
2022/05/28 03:48:15;;;;;;;8.52;1.60;;;11.00;99.90;;;;;;5071115;28;20192;-65
2022/05/28 03:50:41;;;;;;;9.45;1.67;;;11.00;99.90;;;;;;5071480;28;20177;-65
2022/05/28 03:53:06;;;;;;;5.53;2.22;;;11.00;99.90;;;;;;5071602;28;20196;-65
2022/05/28 03:55:32;;;;;;;3.80;1.70;;;11.00;99.90;;;;;;5071489;28;20214;-65
2022/05/28 03:57:57;;;;;;;5.32;1.58;;;11.00;99.90;;;;;;5071737;28;20184;-65
2022/05/28 04:00:23;;;;;;;7.35;1.80;;;11.00;99.90;;;;;;5071365;28;20264;-65
2022/05/28 04:02:48;;;;;;;4.70;1.77;;;11.00;99.90;;;;;;5071359;28;20235;-65
2022/05/28 04:05:14;;;;;;;4.95;1.90;;;10.90;99.90;;;;;;5070856;28;20180;-65
2022/05/28 04:07:40;;;;;;;5.68;1.77;;;10.90;99.90;;;;;;5071584;28;20196;-65
2022/05/28 04:10:07;;;;;;;7.43;1.80;;;10.80;99.90;;;;;;5070825;28;20191;-65
2022/05/28 04:12:33;;;;;;;4.40;1.63;;;10.90;99.90;;;;;;5071030;28;20184;-65
2022/05/28 04:14:58;;;;;;;5.25;1.45;;;10.80;99.90;;;;;;5071544;28;20184;-66
2022/05/28 04:17:24;;;;;;;4.47;1.55;;;10.80;99.90;;;;;;5070999;28;20631;-65
2022/05/28 04:19:50;;;;;;;6.35;1.67;;;10.80;99.90;;;;;;5071622;28;20192;-65
2022/05/28 04:22:15;;;;;;;4.35;2.20;;;10.80;99.90;;;;;;5071053;28;20208;-65
2022/05/28 04:24:41;;;;;;;3.75;1.60;;;10.80;99.90;;;;;;5071154;28;20197;-65
2022/05/28 04:27:07;;;;;;;5.70;1.75;;;10.80;99.90;;;;;;5071476;28;20223;-65
2022/05/28 04:29:32;;;;;;;6.65;1.73;;;10.90;99.90;;;;;;5069353;28;20181;-65
2022/05/28 04:31:58;;;;;;;2.67;1.40;;;11.10;99.90;;;;;;5070988;28;20191;-65
2022/05/28 04:34:23;;;;;;;6.25;1.80;;;11.30;99.90;;;;;;5071046;28;20216;-65
2022/05/28 04:36:49;;;;;;;3.00;1.50;;;11.40;99.90;;;;;;5070963;28;20598;-65
2022/05/28 04:39:15;;;;;;;5.57;2.20;;;11.60;99.90;;;;;;5070809;28;20169;-65
2022/05/28 04:41:40;;;;;;;6.15;1.85;;;11.60;99.90;;;;;;5070692;28;20185;-65
2022/05/28 04:44:06;;;;;;;5.20;2.00;;;11.80;99.90;;;;;;5070884;28;20506;-65
2022/05/28 04:46:31;;;;;;;7.00;1.77;;;12.10;99.90;;;;;;5071161;28;20217;-65
2022/05/28 04:48:57;;;;;;;3.55;1.55;;;12.40;99.90;;;;;;5070989;28;20250;-65
2022/05/28 04:51:23;;;;;;;6.57;2.00;;;12.70;99.90;;;;;;5070486;28;20200;-65
2022/05/28 04:53:49;;;;;;;5.22;1.40;;;13.00;99.90;;;;;;5071120;28;20208;-67
2022/05/28 04:56:14;;;;;;;5.65;1.80;;;13.40;99.90;;;;;;5068809;28;20184;-66
2022/05/28 04:58:42;;;;;;;3.90;1.45;;;13.60;98.60;;;;;;5070576;28;20235;-66
2022/05/28 05:01:12;;;;;;;6.07;1.65;;;13.80;98.00;;;;;;5074717;28;20181;-66
2022/05/28 05:03:37;;;;;;;4.85;1.70;;;14.00;97.70;;;;;;5074451;28;20208;-66
2022/05/28 05:06:03;;;;;;;7.55;1.70;;;14.30;97.40;;;;;;5074708;28;20297;-65
2022/05/28 05:08:30;;;;;;;4.55;1.40;;;14.40;97.10;;;;;;5074296;28;20183;-66
2022/05/28 05:10:56;;;;;;;4.07;1.60;;;14.70;96.50;;;;;;5074437;28;20637;-66
2022/05/28 05:13:21;;;;;;;2.53;1.30;;;15.10;95.80;;;;;;5074684;28;20251;-66
2022/05/28 05:15:47;;;;;;;3.70;1.23;;;15.50;94.80;;;;;;5074455;28;20222;-65
2022/05/28 05:18:12;;;;;;;4.65;1.42;;;15.80;93.60;;;;;;5074269;28;20312;-64
2022/05/28 05:20:38;;;;;;;6.18;1.35;;;15.80;92.50;;;;;;5073988;28;20185;-65
2022/05/28 05:23:04;;;;;;;6.88;1.50;;;15.80;92.40;;;;;;5074260;28;20689;-65
2022/05/28 05:25:29;;;;;;;2.83;1.13;;;15.90;92.40;;;;;;5074201;28;20204;-61
2022/05/28 05:27:55;;;;;;;4.93;1.13;;;16.00;91.90;;;;;;5073577;28;20542;-62
2022/05/28 05:30:20;;;;;;;4.47;1.48;;;16.30;92.00;;;;;;5074006;28;20172;-60
2022/05/28 05:32:46;;;;;;;6.28;1.63;;;17.00;91.10;;;;;;5074021;28;20181;-64
2022/05/28 05:35:12;;;;;;;5.47;1.30;;;17.50;90.00;;;;;;5074070;28;20185;-64
2022/05/28 05:37:37;;;;;;;6.00;1.40;;;18.00;87.60;;;;;;5072458;28;20184;-63
2022/05/28 05:40:04;;;;;;;5.28;1.38;;;18.40;85.00;;;;;;5072417;28;20173;-61
2022/05/28 05:42:29;;;;;;;5.30;1.30;;;18.70;82.60;;;;;;5073173;28;20531;-61
2022/05/28 05:44:55;;;;;;;3.33;1.35;;;19.10;80.10;;;;;;5073913;28;20173;-62
2022/05/28 05:47:20;;;;;;;8.60;2.35;;;19.60;77.50;;;;;;5073417;28;20209;-62
2022/05/28 05:49:46;;;;;;;7.75;1.40;;;19.70;75.90;;;;;;5073440;28;20185;-63
2022/05/28 05:52:12;;;;;;;5.70;1.30;;;19.80;74.10;;;;;;5073828;28;20613;-62
2022/05/28 05:54:37;;;;;;;3.50;1.20;;;19.90;73.30;;;;;;5072597;28;20303;-64
2022/05/28 05:57:04;;;;;;;3.88;1.42;;;20.50;72.10;;;;;;5071050;28;20234;-64
2022/05/28 05:59:29;;;;;;;3.92;1.27;;;21.00;69.60;;;;;;5073725;28;20181;-65
2022/05/28 06:01:55;;;;;;;3.00;1.25;;;21.60;68.40;;;;;;5073714;28;20173;-66
2022/05/28 06:04:21;;;;;;;4.53;1.38;;;21.80;64.70;;;;;;5073739;28;20177;-65
2022/05/28 06:06:47;;;;;;;6.72;1.50;;;21.70;65.50;;;;;;5072150;28;20349;-65
2022/05/28 06:09:13;;;;;;;4.15;1.20;;;22.00;63.60;;;;;;5072768;28;20170;-65
2022/05/28 06:11:38;;;;;;;6.20;1.40;;;22.60;61.90;;;;;;5073426;28;20176;-65
2022/05/28 06:14:04;;;;;;;3.80;1.60;;;23.20;59.40;;;;;;5073402;28;20176;-65
2022/05/28 06:16:30;;;;;;;4.47;1.33;;;23.40;57.20;;;;;;5073440;28;20208;-65
2022/05/28 06:18:55;;;;;;;4.50;1.45;;;23.30;57.10;;;;;;5073354;28;20228;-65
2022/05/28 06:21:22;;;;;;;4.03;1.60;;;23.70;57.10;;;;;;5073149;28;20181;-65
2022/05/28 06:23:47;;;;;;;5.85;1.50;;;24.10;56.40;;;;;;5073104;28;20211;-65
2022/05/28 06:26:13;;;;;;;3.92;1.20;;;24.40;54.10;;;;;;5071964;28;20208;-65
2022/05/28 06:28:39;;;;;;;4.07;1.60;;;24.80;53.00;;;;;;5072936;28;20195;-66
2022/05/28 06:31:08;;;;;;;3.42;1.20;;;24.50;51.30;;;;;;5077858;28;20672;-65
2022/05/28 06:33:36;;;;;;;3.42;1.65;;;24.10;52.20;;;;;;5078151;28;20246;-65
2022/05/28 06:36:04;;;;;;;5.65;1.27;;;23.60;53.10;;;;;;5071959;28;20308;-65
2022/05/28 06:38:29;;;;;;;3.95;1.35;;;23.70;52.50;;;;;;5072344;28;20184;-65
2022/05/28 06:40:55;;;;;;;5.88;1.20;;;24.40;51.50;;;;;;5072654;28;20181;-66
2022/05/28 06:43:21;;;;;;;3.38;0.98;;;24.90;51.20;;;;;;5072263;28;20177;-66
2022/05/28 06:45:47;;;;;;;4.78;1.20;;;25.40;49.10;;;;;;5071421;28;20649;-66
2022/05/28 06:48:13;;;;;;;6.90;1.23;;;25.90;48.70;;;;;;5076203;28;20172;-66
2022/05/28 06:53:24;;;;;;;78.40;48.83;;;26.70;46.90;;;;;;5073001;28;20188;-67
2022/05/28 06:55:49;;;;;;;11.70;6.88;;;26.40;52.00;;;;;;5071715;28;20173;-66
2022/05/28 06:58:15;;;;;;;18.90;12.02;;;26.60;47.60;;;;;;5072346;28;20196;-66
2022/05/28 07:00:41;;;;;;;10.20;3.53;;;27.00;46.70;;;;;;5072489;28;20623;-66
2022/05/28 07:03:13;;;;;;;12.48;6.90;;;27.50;46.30;;;;;;5072306;28;20704;-66
2022/05/28 07:05:39;;;;;;;11.55;7.03;;;27.80;46.00;;;;;;5071413;28;20212;-66
2022/05/28 07:08:05;;;;;;;8.90;4.65;;;27.90;44.50;;;;;;5072334;28;20627;-65
2022/05/28 07:10:30;;;;;;;3.90;2.35;;;27.90;43.40;;;;;;5071852;28;20177;-65
2022/05/28 07:12:56;;;;;;;5.05;2.17;;;27.60;44.00;;;;;;5072041;28;20177;-65
2022/05/28 07:15:22;;;;;;;4.45;2.08;;;27.60;44.60;;;;;;5071343;28;20176;-65
2022/05/28 07:17:48;;;;;;;9.57;4.60;;;27.80;43.50;;;;;;5071904;28;20266;-66
2022/05/28 07:20:14;;;;;;;13.27;7.15;;;28.00;43.90;;;;;;5064192;28;20193;-65
2022/05/28 07:22:40;;;;;;;8.85;4.88;;;28.00;43.60;;;;;;5067056;28;20211;-65
2022/05/28 07:25:06;;;;;;;23.02;10.98;;;27.90;42.90;;;;;;5067316;28;20181;-65
2022/05/28 07:27:31;;;;;;;17.67;9.30;;;27.00;45.10;;;;;;5071847;28;20213;-65
2022/05/28 07:29:57;;;;;;;10.27;5.50;;;26.80;44.50;;;;;;5070389;28;20180;-65
2022/05/28 07:32:25;;;;;;;6.43;1.58;;;27.10;44.20;;;;;;5071109;28;20184;-66
2022/05/28 07:34:51;;;;;;;7.75;4.22;;;27.20;44.20;;;;;;5069741;28;20177;-64
2022/05/28 07:37:17;;;;;;;5.72;2.95;;;27.60;43.30;;;;;;5071110;28;20264;-65
2022/05/28 07:39:42;;;;;;;3.08;1.70;;;28.00;43.10;;;;;;5071632;28;20271;-65
2022/05/28 07:42:08;;;;;;;8.75;4.68;;;28.20;43.50;;;;;;5071915;28;20184;-65
2022/05/28 07:44:35;;;;;;;1.70;1.02;;;28.50;43.30;;;;;;5071563;28;20179;-66
2022/05/28 07:47:07;;;;;;;3.70;1.20;;;27.80;41.90;;;;;;5071604;28;20238;-67
2022/05/28 07:49:35;;;;;;;3.20;1.48;;;26.80;43.00;;;;;;5068928;28;20202;-67
2022/05/28 07:52:00;;;;;;;1.40;0.80;;;26.30;43.50;;;;;;5071627;28;20524;-67
2022/05/28 07:54:26;;;;;;;2.67;1.20;;;26.60;44.00;;;;;;5071375;28;20184;-67
2022/05/28 07:56:52;;;;;;;1.83;0.95;;;26.50;43.40;;;;;;5070943;28;20597;-66
2022/05/28 07:59:17;;;;;;;4.28;1.25;;;26.40;44.40;;;;;;5071491;28;20181;-67
2022/05/28 08:01:43;;;;;;;6.18;1.20;;;26.40;45.00;;;;;;5071476;28;20235;-66
2022/05/28 08:04:09;;;;;;;4.53;1.27;;;26.20;44.20;;;;;;5066404;28;20177;-62
2022/05/28 08:06:36;;;;;;;3.90;1.10;;;25.50;45.70;;;;;;5071219;28;20371;-62
2022/05/28 08:09:02;;;;;;;4.57;1.27;;;25.50;45.90;;;;;;5071082;28;20237;-61
2022/05/28 08:11:28;;;;;;;5.38;1.35;;;25.20;45.90;;;;;;5070545;28;20702;-61
2022/05/28 08:13:54;;;;;;;4.50;1.30;;;24.90;45.90;;;;;;5071504;28;20302;-61
2022/05/28 08:16:20;;;;;;;4.22;1.35;;;24.30;46.80;;;;;;5071321;28;20172;-62
2022/05/28 08:18:46;;;;;;;2.72;1.25;;;23.80;48.00;;;;;;5071219;28;20314;-62
2022/05/28 08:23:57;;;;;;;4.30;1.60;;;24.10;48.80;;;;;;5071507;28;20200;-61
2022/05/28 08:26:24;;;;;;;3.97;0.98;;;24.70;47.70;;;;;;5071155;28;20224;-61
2022/05/28 08:28:50;;;;;;;3.72;1.20;;;24.90;47.60;;;;;;5071220;28;20541;-62
2022/05/28 08:31:17;;;;;;;3.08;1.00;;;25.30;47.90;;;;;;5071426;28;20205;-62
2022/05/28 08:33:43;;;;;;;4.88;1.40;;;25.30;47.30;;;;;;5073965;28;20173;-64
2022/05/28 08:36:09;;;;;;;3.90;1.40;;;24.80;46.10;;;;;;5074234;28;20179;-64
2022/05/28 08:38:37;;;;;;;3.03;1.15;;;23.90;46.50;;;;;;5075135;28;20343;-64
2022/05/28 08:41:08;;;;;;;4.45;0.88;;;23.10;47.60;;;;;;5069039;28;20209;-64
2022/05/28 08:43:37;;;;;;;3.83;1.20;;;22.60;48.50;;;;;;5066211;28;20266;-64
2022/05/28 08:46:03;;;;;;;4.88;1.40;;;22.70;49.40;;;;;;5074483;28;20576;-64
2022/05/28 08:48:46;;;;;;;2.28;1.00;;;23.10;50.10;;;;;;5072040;28;20270;-64
2022/05/28 08:51:43;;;;;;;2.40;1.00;;;23.60;48.50;;;;;;5074864;28;20610;-64
2022/05/28 08:54:28;;;;;;;3.83;0.93;;;24.00;48.60;;;;;;5074199;28;20654;-64
2022/05/28 08:56:57;;;;;;;5.53;1.10;;;23.90;47.40;;;;;;5074845;28;20173;-64
2022/05/28 08:59:28;;;;;;;3.00;1.25;;;23.70;47.70;;;;;;5074554;28;20211;-64
2022/05/28 09:01:55;;;;;;;5.82;1.58;;;23.40;47.90;;;;;;5074544;28;20264;-64
2022/05/28 09:04:35;;;;;;;3.50;1.20;;;23.00;48.70;;;;;;5074601;28;20208;-64
2022/05/28 09:07:06;;;;;;;5.55;1.75;;;22.90;49.70;;;;;;5074742;28;20255;-64
2022/05/28 09:09:40;;;;;;;3.60;1.27;;;22.40;49.70;;;;;;5074729;28;20306;-64
2022/05/28 09:12:11;;;;;;;4.22;1.02;;;22.20;50.20;;;;;;5074736;28;20180;-64
2022/05/28 09:14:38;;;;;;;3.55;1.27;;;22.00;51.50;;;;;;5074946;28;20176;-64
2022/05/28 09:17:10;;;;;;;6.85;2.63;;;21.70;50.80;;;;;;5074560;28;20315;-64
2022/05/28 09:19:45;;;;;;;4.32;1.40;;;21.60;52.20;;;;;;5069224;28;20248;-64
2022/05/28 09:22:11;;;;;;;2.65;1.17;;;21.50;51.70;;;;;;5054540;28;20187;-64
2022/05/28 09:24:39;;;;;;;3.75;1.10;;;21.30;52.80;;;;;;5054254;28;20806;-64
2022/05/28 09:27:34;;;;;;;2.47;1.13;;;21.50;51.20;;;;;;5064970;28;20243;-64
2022/05/28 09:30:16;;;;;;;2.92;1.10;;;21.60;51.90;;;;;;5073938;28;20252;-64
2022/05/28 09:33:14;;;;;;;3.90;1.38;;;21.80;52.20;;;;;;5074130;28;20172;-64
2022/05/28 09:35:50;;;;;;;3.58;1.20;;;22.40;50.90;;;;;;5073571;28;20664;-64
2022/05/28 09:38:24;;;;;;;6.68;1.40;;;22.80;50.40;;;;;;5074052;28;20255;-64
2022/05/28 09:40:50;;;;;;;3.30;1.00;;;23.30;49.60;;;;;;5074231;28;20180;-64
2022/05/28 09:43:27;;;;;;;4.68;1.30;;;23.50;48.60;;;;;;5073458;28;20173;-64
2022/05/28 09:45:59;;;;;;;4.10;1.10;;;23.90;48.50;;;;;;5073084;28;20215;-64
2022/05/28 09:48:27;;;;;;;4.78;1.40;;;23.90;48.20;;;;;;5074206;28;20181;-64
2022/05/28 09:50:54;;;;;;;5.03;1.25;;;23.30;47.60;;;;;;5073904;28;20176;-64
2022/05/28 09:56:27;;;;;;;3.53;1.15;;;21.80;49.80;;;;;;5074527;28;20168;-64
2022/05/28 09:58:53;;;;;;;3.83;1.08;;;21.40;50.90;;;;;;5073855;28;20176;-64
2022/05/28 10:01:25;;;;;;;2.13;0.82;;;21.80;50.40;;;;;;5073619;28;20184;-63
2022/05/28 10:06:49;;;;;;;2.80;1.10;;;23.00;47.40;;;;;;5073733;28;20697;-64
2022/05/28 10:09:32;;;;;;;3.17;0.80;;;23.60;45.80;;;;;;5073622;28;20211;-64
2022/05/28 10:12:13;;;;;;;6.00;1.00;;;23.90;45.70;;;;;;5073890;28;20184;-64
2022/05/28 10:14:39;;;;;;;3.90;0.85;;;24.50;46.20;;;;;;5073592;28;20226;-64
2022/05/28 10:17:05;;;;;;;4.38;1.10;;;25.00;45.70;;;;;;5073447;28;20181;-64
2022/05/28 10:19:40;;;;;;;3.13;1.20;;;25.30;44.50;;;;;;5073329;28;20229;-64
2022/05/28 10:22:14;;;;;;;2.60;1.05;;;25.30;44.40;;;;;;5073600;28;20200;-64
2022/05/28 10:24:46;;;;;;;2.50;0.90;;;25.00;44.40;;;;;;5073006;28;20660;-64
2022/05/28 10:27:27;;;;;;;6.10;1.17;;;24.60;45.50;;;;;;5073168;28;20588;-64
2022/05/28 10:29:53;;;;;;;6.20;1.33;;;23.90;46.40;;;;;;5073610;28;20255;-64
2022/05/28 10:32:25;;;;;;;2.95;1.02;;;23.50;46.50;;;;;;5073005;28;20250;-65
2022/05/28 10:35:02;;;;;;;2.00;0.88;;;23.00;46.40;;;;;;5073086;28;20173;-64
2022/05/28 10:37:30;;;;;;;2.45;0.93;;;22.70;47.50;;;;;;5073375;28;20619;-65
2022/05/28 10:40:25;;;;;;;3.85;0.68;;;23.00;47.90;;;;;;5073129;28;20207;-65
2022/05/28 10:43:00;;;;;;;3.55;0.90;;;23.40;46.40;;;;;;5072690;28;20227;-65
2022/05/28 10:45:33;;;;;;;9.38;1.98;;;24.00;46.90;;;;;;5073360;28;20176;-65
2022/05/28 10:48:10;;;;;;;10.38;2.40;;;23.70;45.30;;;;;;5072896;28;20184;-65
2022/05/28 10:51:11;;;;;;;3.40;1.10;;;23.40;45.30;;;;;;5073104;28;20653;-65
2022/05/28 10:53:59;;;;;;;13.10;3.78;;;23.10;45.60;;;;;;5072871;28;20211;-64
2022/05/28 10:56:46;;;;;;;5.55;2.47;;;22.60;46.60;;;;;;5072394;28;20203;-65
2022/05/28 10:59:15;;;;;;;3.55;1.30;;;22.40;47.20;;;;;;5072744;28;20239;-65
2022/05/28 11:02:10;;;;;;;4.93;1.17;;;22.30;48.30;;;;;;5072645;28;20177;-65
2022/05/28 11:04:51;;;;;;;4.68;1.10;;;22.30;48.30;;;;;;5072476;28;20596;-65
2022/05/28 11:07:51;;;;;;;2.63;1.00;;;22.00;48.30;;;;;;5072321;28;20301;-65
2022/05/28 11:10:34;;;;;;;4.68;0.88;;;21.90;48.00;;;;;;5072600;28;20177;-65
2022/05/28 11:13:24;;;;;;;2.40;0.70;;;22.10;47.60;;;;;;5072493;28;20177;-65
2022/05/28 11:16:19;;;;;;;5.13;1.00;;;22.30;47.60;;;;;;5071197;28;20202;-65
2022/05/28 11:19:02;;;;;;;4.40;1.17;;;22.20;47.60;;;;;;5072499;28;20228;-65
2022/05/28 11:21:57;;;;;;;2.55;0.88;;;22.20;47.30;;;;;;5050915;28;20185;-64
2022/05/28 11:24:54;;;;;;;3.75;0.90;;;22.30;48.50;;;;;;5052098;28;20177;-65
2022/05/28 11:27:44;;;;;;;3.92;1.30;;;22.70;47.80;;;;;;5064747;28;20238;-65
2022/05/28 11:30:31;;;;;;;2.60;0.90;;;23.00;48.90;;;;;;5072284;28;20509;-64
2022/05/28 11:33:10;;;;;;;4.35;1.00;;;23.20;47.90;;;;;;5072249;28;20339;-65
2022/05/28 11:36:03;;;;;;;3.50;0.90;;;23.30;48.30;;;;;;5072318;28;20298;-65
2022/05/28 11:38:36;;;;;;;4.07;1.08;;;23.80;48.30;;;;;;5071943;28;20165;-65
2022/05/28 11:41:17;;;;;;;3.60;0.98;;;24.10;47.80;;;;;;5072006;28;20191;-65
2022/05/28 11:44:06;;;;;;;1.73;0.98;;;24.00;47.50;;;;;;5072204;28;20272;-65
2022/05/28 11:46:37;;;;;;;2.80;1.17;;;24.10;48.00;;;;;;5071864;28;20212;-63
2022/05/28 11:52:13;;;;;;;2.17;0.85;;;24.30;47.90;;;;;;5071858;28;20167;-63
2022/05/28 11:54:49;;;;;;;4.43;1.17;;;24.60;46.30;;;;;;5070726;28;20177;-63
2022/05/28 11:57:49;;;;;;;0.70;0.70;;;24.70;46.00;;;;;;5071461;28;20181;-64
2022/05/28 12:00:16;;;;;;;2.58;0.77;;;24.20;44.90;;;;;;5066177;28;20180;-64
2022/05/28 12:02:47;;;;;;;3.75;2.00;;;23.80;45.60;;;;;;5069907;28;20185;-63
2022/05/28 12:05:23;;;;;;;3.47;1.40;;;23.20;45.60;;;;;;5071713;28;20706;-64
2022/05/28 12:08:02;;;;;;;1.85;0.90;;;22.90;47.40;;;;;;5073320;28;20188;-64
2022/05/28 12:10:45;;;;;;;3.78;0.90;;;22.60;47.20;;;;;;5076005;28;20180;-64
2022/05/28 12:13:10;;;;;;;0.85;0.63;;;22.10;47.00;;;;;;5075856;28;20194;-64
2022/05/28 12:15:38;;;;;;;2.45;0.98;;;22.00;48.70;;;;;;5075928;28;20172;-64
2022/05/28 12:18:22;;;;;;;4.47;1.10;;;22.40;48.10;;;;;;5067420;28;20221;-62
2022/05/28 12:20:58;;;;;;;2.30;0.70;;;22.70;47.30;;;;;;5066066;28;20185;-62
2022/05/28 12:23:34;;;;;;;3.22;1.00;;;23.10;46.20;;;;;;5075580;28;20216;-63
2022/05/28 12:26:03;;;;;;;2.42;1.00;;;23.40;46.80;;;;;;5075509;28;20204;-64
2022/05/28 12:28:42;;;;;;;2.25;0.90;;;23.40;46.60;;;;;;5075570;28;20169;-63
2022/05/28 12:31:08;;;;;;;1.52;0.60;;;23.50;47.40;;;;;;5074977;28;20184;-64
2022/05/28 12:33:47;;;;;;;2.78;1.00;;;23.40;46.10;;;;;;5071612;28;20260;-63
2022/05/28 12:36:40;;;;;;;0.60;0.60;;;23.50;46.90;;;;;;5075226;28;20227;-63
2022/05/28 12:39:28;;;;;;;2.40;0.80;;;23.60;47.90;;;;;;5075205;28;20214;-63
2022/05/28 12:41:59;;;;;;;3.55;1.10;;;23.80;46.80;;;;;;5074389;28;20531;-64
2022/05/28 12:44:25;;;;;;;5.57;0.90;;;23.90;47.00;;;;;;5075145;28;20181;-62
2022/05/28 12:46:59;;;;;;;1.38;0.75;;;23.70;46.00;;;;;;5075003;28;20604;-62
2022/05/28 12:49:24;;;;;;;1.60;0.70;;;23.80;44.30;;;;;;5075310;28;20263;-63
2022/05/28 12:51:50;;;;;;;1.40;0.50;;;24.00;44.00;;;;;;5074636;28;20287;-62
2022/05/28 12:54:27;;;;;;;1.98;0.63;;;24.20;44.20;;;;;;5074894;28;20176;-62
2022/05/28 12:57:05;;;;;;;1.60;0.52;;;24.20;43.50;;;;;;5075073;28;20222;-63
2022/05/28 12:59:34;;;;;;;1.95;1.05;;;24.30;42.80;;;;;;5074447;28;20188;-62
2022/05/28 13:02:09;;;;;;;3.50;1.00;;;24.20;43.10;;;;;;5074962;28;20561;-62
2022/05/28 13:04:53;;;;;;;1.10;0.85;;;24.40;44.30;;;;;;5074589;28;20560;-63
2022/05/28 13:07:43;;;;;;;2.97;1.05;;;24.70;42.70;;;;;;5055003;28;20217;-62
2022/05/28 13:10:15;;;;;;;1.40;0.80;;;24.80;42.20;;;;;;5065528;28;20674;-64
2022/05/28 13:12:49;;;;;;;2.25;1.10;;;24.50;42.10;;;;;;5074574;28;20176;-64
2022/05/28 13:15:40;;;;;;;1.88;0.90;;;24.20;42.20;;;;;;5074335;28;20537;-63
2022/05/28 13:18:42;;;;;;;0.93;0.88;;;24.10;42.80;;;;;;5074157;28;20669;-63